Time;durP1;ratioP1;P1;durP2;ratioP2;P2;SDS_P1;SDS_P2;PMS_P1;PMS_P2;Temp;Humidity;BMP_temperature;BMP_pressure;BME280_temperature;BME280_humidity;BME280_pressure;Samples;Min_cycle;Max_cycle;Signal;HPM_P1;HPM_P2
2022/12/15 00:38:46;;;;;;;126.53;56.80;;;;;;;;;;735977;188;919546;-56
2022/12/15 00:41:12;;;;;;;113.93;59.50;;;;;;;;;;734007;188;918612;-58
2022/12/15 00:43:38;;;;;;;125.77;63.50;;;;;;;;;;735762;191;919124;-56
2022/12/15 00:48:35;;;;;;;113.57;58.20;;;;;;;;;;729665;189;821690;-56
2022/12/15 00:51:01;;;;;;;127.33;62.60;;;;;;;;;;741814;186;919276;-56
2022/12/15 01:21:19;;;;;;;102.97;53.13;;;;;;;;;;758305;185;918886;-56
2022/12/15 01:23:45;;;;;;;116.73;54.17;;;;;;;;;;744180;185;919399;-56
2022/12/15 01:26:10;;;;;;;99.72;53.63;;;;;;;;;;737585;188;917581;-56
2022/12/15 01:28:36;;;;;;;88.07;46.80;;;;;;;;;;747281;188;922801;-57
2022/12/15 01:31:02;;;;;;;72.80;39.80;;;;;;;;;;743028;187;920479;-60
2022/12/15 01:33:28;;;;;;;57.20;34.67;;;;;;;;;;741981;187;918913;-56
2022/12/15 01:35:55;;;;;;;51.60;28.60;;;;;;;;;;753617;187;911645;-56
2022/12/15 01:38:20;;;;;;;46.57;27.97;;;;;;;;;;738168;187;839352;-57
2022/12/15 01:40:49;;;;;;;44.80;24.33;;;;;;;;;;739490;187;921465;-57
2022/12/15 01:43:15;;;;;;;42.90;24.60;;;;;;;;;;739632;187;919537;-57
2022/12/15 01:45:44;;;;;;;41.20;24.40;;;;;;;;;;739343;187;916889;-56
2022/12/15 01:48:10;;;;;;;41.23;22.67;;;;;;;;;;733211;188;916454;-56
2022/12/15 01:50:35;;;;;;;40.00;20.50;;;;;;;;;;740616;188;918989;-56
2022/12/15 01:53:01;;;;;;;44.43;23.77;;;;;;;;;;747904;188;918882;-56
2022/12/15 01:55:27;;;;;;;43.13;22.70;;;;;;;;;;739032;188;918207;-56
2022/12/15 01:57:53;;;;;;;45.33;24.93;;;;;;;;;;740178;188;919239;-56
2022/12/15 02:00:19;;;;;;;43.40;22.60;;;;;;;;;;734318;188;918945;-57
2022/12/15 02:02:45;;;;;;;40.43;23.47;;;;;;;;;;728991;188;916457;-56
2022/12/15 02:05:11;;;;;;;38.97;23.97;;;;;;;;;;734754;188;916639;-56
2022/12/15 02:07:37;;;;;;;41.20;24.40;;;;;;;;;;740302;187;922283;-56
2022/12/15 02:10:04;;;;;;;57.90;26.07;;;;;;;;;;747160;186;819445;-56
2022/12/15 02:12:44;;;;;;;39.60;23.73;;;;;;;;;;735647;188;920764;-56
2022/12/15 02:15:15;;;;;;;43.78;24.80;;;;;;;;;;736644;188;915192;-56
2022/12/15 02:17:47;;;;;;;42.17;24.00;;;;;;;;;;736170;188;918652;-57
2022/12/15 02:20:13;;;;;;;51.67;26.97;;;;;;;;;;732694;188;919864;-56
2022/12/15 02:22:54;;;;;;;45.63;25.77;;;;;;;;;;744608;187;918759;-56
2022/12/15 02:25:33;;;;;;;42.40;25.10;;;;;;;;;;748989;187;919580;-56
2022/12/15 02:27:58;;;;;;;42.33;22.70;;;;;;;;;;740878;190;919693;-57
2022/12/15 02:30:42;;;;;;;44.77;24.83;;;;;;;;;;736132;189;918457;-56
2022/12/15 02:33:08;;;;;;;45.03;25.87;;;;;;;;;;730490;189;917000;-56
2022/12/15 02:35:37;;;;;;;44.53;24.67;;;;;;;;;;733118;189;920946;-57
2022/12/15 02:38:02;;;;;;;43.60;25.03;;;;;;;;;;738686;190;919980;-57
2022/12/15 02:40:28;;;;;;;47.77;24.80;;;;;;;;;;732657;189;919981;-56
2022/12/15 02:42:54;;;;;;;46.00;26.03;;;;;;;;;;738095;187;919906;-56
2022/12/15 02:45:23;;;;;;;39.63;22.67;;;;;;;;;;736465;187;923096;-56
2022/12/15 02:47:55;;;;;;;45.97;25.50;;;;;;;;;;733941;190;923188;-56
2022/12/15 02:50:23;;;;;;;44.10;25.60;;;;;;;;;;728656;190;919982;-56
2022/12/15 02:53:04;;;;;;;47.90;24.80;;;;;;;;;;733786;188;915257;-56
2022/12/15 02:55:36;;;;;;;49.93;24.27;;;;;;;;;;740654;186;921390;-57
2022/12/15 02:58:07;;;;;;;46.80;24.13;;;;;;;;;;739897;187;919522;-57
2022/12/15 03:00:33;;;;;;;49.20;24.63;;;;;;;;;;745553;186;817049;-56
2022/12/15 03:02:59;;;;;;;42.30;23.80;;;;;;;;;;743429;188;919415;-56
2022/12/15 03:05:25;;;;;;;43.73;22.93;;;;;;;;;;732197;190;922474;-56
2022/12/15 03:07:51;;;;;;;50.60;25.20;;;;;;;;;;739730;191;865158;-56
2022/12/15 03:10:17;;;;;;;45.20;24.20;;;;;;;;;;737645;188;921008;-56
2022/12/15 03:12:43;;;;;;;37.67;22.17;;;;;;;;;;732521;191;914991;-56
2022/12/15 03:15:09;;;;;;;40.60;24.03;;;;;;;;;;739311;188;920097;-56
2022/12/15 03:17:34;;;;;;;44.23;25.03;;;;;;;;;;735286;190;817153;-56
2022/12/15 03:20:00;;;;;;;46.97;22.93;;;;;;;;;;734606;189;916284;-56
2022/12/15 03:22:26;;;;;;;45.33;23.80;;;;;;;;;;733110;189;919334;-57
2022/12/15 03:24:52;;;;;;;47.00;24.80;;;;;;;;;;734145;189;920843;-57
2022/12/15 03:27:18;;;;;;;38.57;21.80;;;;;;;;;;731687;189;924096;-56
2022/12/15 03:29:44;;;;;;;47.33;22.73;;;;;;;;;;729118;188;1020313;-56
2022/12/15 03:32:09;;;;;;;48.93;24.67;;;;;;;;;;749507;187;919214;-56
2022/12/15 03:34:35;;;;;;;43.20;19.90;;;;;;;;;;743846;186;921194;-56
2022/12/15 03:37:01;;;;;;;47.27;25.40;;;;;;;;;;741149;190;920336;-56
2022/12/15 03:39:27;;;;;;;45.70;24.97;;;;;;;;;;744584;187;812197;-57
2022/12/15 03:41:53;;;;;;;42.53;23.80;;;;;;;;;;743904;188;815882;-56
2022/12/15 03:44:19;;;;;;;52.73;24.80;;;;;;;;;;739026;188;813369;-57
2022/12/15 03:46:44;;;;;;;50.93;27.30;;;;;;;;;;736835;187;618913;-57
2022/12/15 03:49:10;;;;;;;40.47;23.37;;;;;;;;;;747877;187;628946;-57
2022/12/15 03:51:36;;;;;;;57.93;28.00;;;;;;;;;;742670;185;918472;-57
2022/12/15 03:54:02;;;;;;;50.03;28.77;;;;;;;;;;729771;192;918808;-57
2022/12/15 03:56:28;;;;;;;53.83;29.10;;;;;;;;;;750214;187;915471;-56
2022/12/15 03:58:54;;;;;;;48.13;27.83;;;;;;;;;;744429;187;917531;-56
2022/12/15 04:01:28;;;;;;;46.17;27.57;;;;;;;;;;740202;187;919912;-57
2022/12/15 04:03:54;;;;;;;52.10;27.87;;;;;;;;;;733735;188;919740;-56
2022/12/15 04:06:20;;;;;;;47.20;25.50;;;;;;;;;;736643;188;923822;-56
2022/12/15 04:08:46;;;;;;;60.63;26.70;;;;;;;;;;734699;188;917728;-55
2022/12/15 04:11:11;;;;;;;50.67;24.63;;;;;;;;;;726357;191;919594;-57
2022/12/15 04:13:37;;;;;;;49.23;26.60;;;;;;;;;;742988;188;919233;-56
2022/12/15 04:16:03;;;;;;;52.60;23.87;;;;;;;;;;731804;188;919203;-56
2022/12/15 04:18:29;;;;;;;51.70;26.90;;;;;;;;;;740975;188;918928;-56
2022/12/15 04:20:55;;;;;;;53.00;27.40;;;;;;;;;;731540;191;918797;-56
2022/12/15 04:23:21;;;;;;;47.27;25.60;;;;;;;;;;742656;188;914794;-56
2022/12/15 05:34:04;;;;;;;58.67;32.57;;;;;;;;;;737733;188;915424;-57
2022/12/15 05:36:30;;;;;;;59.03;31.63;;;;;;;;;;742010;188;627065;-56
2022/12/15 05:38:56;;;;;;;53.87;27.20;;;;;;;;;;736720;188;918774;-56
2022/12/15 05:41:22;;;;;;;53.57;30.57;;;;;;;;;;744816;186;918733;-56
2022/12/15 05:43:47;;;;;;;63.17;31.43;;;;;;;;;;738556;189;712662;-56
2022/12/15 05:46:14;;;;;;;59.80;29.90;;;;;;;;;;730653;191;948862;-56
2022/12/15 05:48:40;;;;;;;61.27;30.87;;;;;;;;;;740808;188;919809;-56
2022/12/15 05:51:07;;;;;;;49.00;29.93;;;;;;;;;;728520;191;811798;-57
2022/12/15 05:53:32;;;;;;;58.60;31.10;;;;;;;;;;749536;187;629385;-57
2022/12/15 05:55:59;;;;;;;60.33;32.30;;;;;;;;;;727673;191;628658;-56
2022/12/15 05:58:25;;;;;;;59.03;28.53;;;;;;;;;;738622;187;819441;-57
2022/12/15 06:00:51;;;;;;;55.67;29.77;;;;;;;;;;742310;187;816200;-56
2022/12/15 06:03:17;;;;;;;59.25;32.40;;;;;;;;;;740002;187;919960;-56
2022/12/15 06:05:43;;;;;;;55.33;30.47;;;;;;;;;;739119;187;918276;-56
2022/12/15 06:08:09;;;;;;;66.03;30.80;;;;;;;;;;743144;187;816202;-57
2022/12/15 06:10:34;;;;;;;66.97;34.50;;;;;;;;;;741228;187;918110;-56
2022/12/15 06:13:00;;;;;;;62.23;32.33;;;;;;;;;;733996;188;916974;-56
2022/12/15 06:15:27;;;;;;;66.13;33.83;;;;;;;;;;739456;185;816210;-57
2022/12/15 06:17:54;;;;;;;62.07;32.97;;;;;;;;;;737109;188;916063;-57
2022/12/15 06:20:18;;;;;;;53.50;30.47;;;;;;;;;;717627;192;930162;-57
2022/12/15 06:22:44;;;;;;;56.30;33.65;;;;;;;;;;738070;187;922244;-56
2022/12/15 06:25:10;;;;;;;56.17;32.93;;;;;;;;;;749365;188;915623;-56
2022/12/15 06:27:36;;;;;;;61.55;31.83;;;;;;;;;;740205;187;919661;-56
2022/12/15 06:30:01;;;;;;;56.50;29.80;;;;;;;;;;738828;188;920843;-56
2022/12/15 06:32:27;;;;;;;61.23;31.83;;;;;;;;;;732769;188;919288;-56
2022/12/15 06:34:53;;;;;;;64.70;33.00;;;;;;;;;;734849;188;924686;-55
2022/12/15 06:37:19;;;;;;;62.10;30.77;;;;;;;;;;742765;187;919997;-58
2022/12/15 06:39:45;;;;;;;56.27;28.47;;;;;;;;;;742680;187;918620;-58
2022/12/15 06:42:11;;;;;;;74.63;32.20;;;;;;;;;;743346;185;918521;-59
2022/12/15 06:44:36;;;;;;;66.60;34.83;;;;;;;;;;733862;188;919356;-57
2022/12/15 06:47:02;;;;;;;67.78;34.28;;;;;;;;;;737139;187;919405;-58
2022/12/15 06:49:28;;;;;;;72.43;35.53;;;;;;;;;;737233;188;828484;-58
2022/12/15 06:51:54;;;;;;;67.37;38.57;;;;;;;;;;731275;189;917299;-57
2022/12/15 06:54:20;;;;;;;73.63;36.10;;;;;;;;;;740811;187;918336;-57
2022/12/15 06:56:46;;;;;;;63.83;34.50;;;;;;;;;;750973;185;617237;-57
2022/12/15 06:59:12;;;;;;;70.77;36.87;;;;;;;;;;745285;188;715270;-57
2022/12/15 07:01:37;;;;;;;76.23;38.67;;;;;;;;;;743179;186;917698;-58
2022/12/15 07:04:04;;;;;;;68.63;36.23;;;;;;;;;;734461;193;922743;-57
2022/12/15 07:06:33;;;;;;;76.47;34.63;;;;;;;;;;744176;187;920322;-58
2022/12/15 07:08:57;;;;;;;71.93;33.13;;;;;;;;;;737950;187;917732;-58
2022/12/15 07:11:23;;;;;;;75.70;35.58;;;;;;;;;;739370;187;921643;-57
2022/12/15 07:13:49;;;;;;;62.27;34.30;;;;;;;;;;745549;187;848544;-57
2022/12/15 07:16:14;;;;;;;73.70;39.13;;;;;;;;;;741602;187;903540;-58
2022/12/15 07:18:40;;;;;;;67.80;34.77;;;;;;;;;;737315;187;818489;-58
2022/12/15 07:21:06;;;;;;;69.30;35.40;;;;;;;;;;743112;188;919772;-57
2022/12/15 07:23:32;;;;;;;69.53;33.50;;;;;;;;;;739845;188;918791;-57
2022/12/15 07:25:58;;;;;;;69.87;37.93;;;;;;;;;;737269;188;919341;-58
2022/12/15 07:28:24;;;;;;;72.53;39.87;;;;;;;;;;742129;187;918720;-58
2022/12/15 07:30:49;;;;;;;81.70;39.30;;;;;;;;;;740904;187;816639;-57
2022/12/15 07:33:15;;;;;;;78.27;36.20;;;;;;;;;;735852;187;920414;-57
2022/12/15 07:35:41;;;;;;;67.47;35.80;;;;;;;;;;742769;187;632361;-58
2022/12/15 07:38:07;;;;;;;68.05;33.67;;;;;;;;;;738505;190;919354;-57
2022/12/15 07:40:33;;;;;;;61.50;33.83;;;;;;;;;;735792;189;944738;-57
2022/12/15 07:42:59;;;;;;;68.93;35.70;;;;;;;;;;741939;187;821402;-58
2022/12/15 07:45:24;;;;;;;64.70;32.00;;;;;;;;;;735762;188;921714;-59
2022/12/15 07:47:50;;;;;;;69.30;36.13;;;;;;;;;;736091;188;847133;-57
2022/12/15 07:50:17;;;;;;;66.12;33.80;;;;;;;;;;735038;188;918696;-57
2022/12/15 07:52:42;;;;;;;61.13;33.00;;;;;;;;;;741158;188;915763;-58
2022/12/15 07:55:08;;;;;;;67.80;32.63;;;;;;;;;;742076;188;913515;-57
2022/12/15 07:57:34;;;;;;;70.73;34.60;;;;;;;;;;731588;188;630056;-57
2022/12/15 08:00:00;;;;;;;65.20;32.07;;;;;;;;;;741473;188;917150;-58
2022/12/15 08:02:25;;;;;;;64.30;31.37;;;;;;;;;;739926;188;918932;-58
2022/12/15 08:04:51;;;;;;;63.93;32.57;;;;;;;;;;730783;190;817603;-57
2022/12/15 08:07:17;;;;;;;62.20;36.03;;;;;;;;;;737091;188;918347;-57
2022/12/15 08:09:43;;;;;;;57.53;31.77;;;;;;;;;;745336;187;921961;-57
2022/12/15 08:12:09;;;;;;;60.13;31.97;;;;;;;;;;742238;187;922200;-58
2022/12/15 08:14:35;;;;;;;61.53;33.33;;;;;;;;;;743686;188;920071;-58
2022/12/15 08:17:01;;;;;;;75.17;35.17;;;;;;;;;;737255;189;929489;-63
2022/12/15 08:19:26;;;;;;;59.17;30.40;;;;;;;;;;733513;189;918974;-58
2022/12/15 08:21:52;;;;;;;54.03;29.67;;;;;;;;;;738973;187;918800;-58
2022/12/15 08:24:19;;;;;;;51.45;29.10;;;;;;;;;;744456;187;893628;-58
2022/12/15 08:26:44;;;;;;;61.47;31.50;;;;;;;;;;743984;187;804066;-58
2022/12/15 08:29:10;;;;;;;51.97;28.40;;;;;;;;;;744616;186;919527;-58
2022/12/15 08:31:36;;;;;;;59.83;32.47;;;;;;;;;;745232;188;877225;-58
2022/12/15 08:34:02;;;;;;;59.73;30.93;;;;;;;;;;746274;188;915630;-58
2022/12/15 08:36:28;;;;;;;55.07;30.93;;;;;;;;;;737276;189;918951;-58
2022/12/15 08:38:54;;;;;;;61.30;31.70;;;;;;;;;;733978;191;924207;-57
2022/12/15 08:41:22;;;;;;;61.33;30.47;;;;;;;;;;742797;188;918513;-57
2022/12/15 08:43:46;;;;;;;70.13;33.77;;;;;;;;;;741409;188;918578;-58
2022/12/15 08:46:12;;;;;;;61.70;30.67;;;;;;;;;;741978;185;918514;-58
2022/12/15 08:48:39;;;;;;;55.70;27.65;;;;;;;;;;734030;191;920894;-57
2022/12/15 08:51:05;;;;;;;60.93;29.93;;;;;;;;;;718391;191;922653;-58
2022/12/15 08:53:31;;;;;;;50.70;28.07;;;;;;;;;;734478;187;921764;-58
2022/12/15 08:56:05;;;;;;;56.20;28.97;;;;;;;;;;740671;188;820484;-58
2022/12/15 08:58:31;;;;;;;55.83;28.07;;;;;;;;;;740961;189;917311;-58
2022/12/15 09:01:01;;;;;;;51.60;28.83;;;;;;;;;;736609;187;621972;-58
2022/12/15 09:03:27;;;;;;;50.67;28.30;;;;;;;;;;746869;187;919704;-59
2022/12/15 09:05:53;;;;;;;54.43;30.60;;;;;;;;;;749841;184;629657;-59
2022/12/15 09:08:19;;;;;;;61.50;33.97;;;;;;;;;;748013;188;919172;-58
2022/12/15 09:10:45;;;;;;;59.83;30.90;;;;;;;;;;744945;188;810975;-59
2022/12/15 09:13:10;;;;;;;60.40;31.40;;;;;;;;;;735849;190;917229;-59
2022/12/15 09:15:36;;;;;;;72.57;31.57;;;;;;;;;;741146;188;916674;-58
2022/12/15 09:18:02;;;;;;;53.93;30.37;;;;;;;;;;735279;188;919368;-58
2022/12/15 09:20:28;;;;;;;53.27;30.57;;;;;;;;;;729138;193;918825;-58
2022/12/15 09:22:54;;;;;;;51.07;29.20;;;;;;;;;;726717;193;840633;-59
2022/12/15 09:25:20;;;;;;;54.33;28.17;;;;;;;;;;747305;186;917439;-58
2022/12/15 09:27:45;;;;;;;53.40;26.27;;;;;;;;;;728949;188;918782;-58
2022/12/15 09:30:11;;;;;;;50.00;23.30;;;;;;;;;;716468;193;919604;-59
2022/12/15 09:32:37;;;;;;;44.17;26.07;;;;;;;;;;733626;190;923298;-58
2022/12/15 09:35:05;;;;;;;41.92;24.45;;;;;;;;;;741592;188;919355;-58
2022/12/15 09:37:31;;;;;;;44.10;24.40;;;;;;;;;;733235;191;919008;-59
2022/12/15 09:39:56;;;;;;;52.57;27.43;;;;;;;;;;748595;188;915522;-58
2022/12/15 09:42:22;;;;;;;53.80;29.20;;;;;;;;;;745967;188;920622;-58
2022/12/15 09:44:48;;;;;;;52.27;28.90;;;;;;;;;;745515;187;920165;-58
2022/12/15 09:47:14;;;;;;;56.23;30.13;;;;;;;;;;743130;188;921672;-59
2022/12/15 09:49:46;;;;;;;45.53;27.90;;;;;;;;;;742736;188;938076;-58
2022/12/15 09:52:12;;;;;;;45.67;31.03;;;;;;;;;;748701;185;821759;-58
2022/12/15 09:54:40;;;;;;;53.40;25.73;;;;;;;;;;753245;185;920535;-58
2022/12/15 09:57:04;;;;;;;57.00;28.07;;;;;;;;;;748650;185;918881;-58
2022/12/15 09:59:32;;;;;;;54.83;29.53;;;;;;;;;;743097;188;918325;-58
2022/12/15 10:02:12;;;;;;;53.67;27.40;;;;;;;;;;742462;187;820189;-58
2022/12/15 10:04:42;;;;;;;57.17;30.00;;;;;;;;;;737148;188;814487;-58
2022/12/15 10:07:23;;;;;;;51.17;28.50;;;;;;;;;;742196;188;919290;-58
2022/12/15 10:09:49;;;;;;;44.73;25.40;;;;;;;;;;741488;188;1021597;-59
2022/12/15 10:12:15;;;;;;;52.30;27.03;;;;;;;;;;745578;187;816857;-57
2022/12/15 10:14:41;;;;;;;50.20;28.50;;;;;;;;;;741566;187;910899;-58
2022/12/15 10:17:10;;;;;;;50.07;28.00;;;;;;;;;;735507;188;926936;-59
2022/12/15 10:19:38;;;;;;;51.30;26.70;;;;;;;;;;739912;188;934075;-59
2022/12/15 10:22:04;;;;;;;46.77;26.90;;;;;;;;;;738625;187;918533;-58
2022/12/15 10:24:30;;;;;;;48.07;24.90;;;;;;;;;;737715;187;919473;-59
2022/12/15 10:26:58;;;;;;;48.60;26.30;;;;;;;;;;743052;185;919064;-59
2022/12/15 10:29:24;;;;;;;55.73;27.10;;;;;;;;;;746379;188;919503;-58
2022/12/15 10:31:56;;;;;;;48.80;26.63;;;;;;;;;;742053;188;919510;-59
2022/12/15 10:34:22;;;;;;;51.30;24.60;;;;;;;;;;741478;188;922388;-59
2022/12/15 10:36:48;;;;;;;49.17;26.77;;;;;;;;;;743358;188;919899;-58
2022/12/15 10:39:14;;;;;;;48.13;27.23;;;;;;;;;;741122;191;815827;-58
2022/12/15 10:41:40;;;;;;;54.33;28.50;;;;;;;;;;745251;185;817159;-58
2022/12/15 10:44:06;;;;;;;51.40;27.27;;;;;;;;;;747324;185;918163;-59
2022/12/15 10:46:32;;;;;;;54.30;27.67;;;;;;;;;;752045;187;816785;-59
2022/12/15 10:48:58;;;;;;;55.50;29.12;;;;;;;;;;737241;188;919411;-59
2022/12/15 10:51:25;;;;;;;45.50;26.90;;;;;;;;;;725846;190;820477;-60
2022/12/15 10:53:51;;;;;;;44.97;27.10;;;;;;;;;;741405;188;919233;-59
2022/12/15 10:56:17;;;;;;;54.70;27.47;;;;;;;;;;739889;188;888443;-59
2022/12/15 10:58:46;;;;;;;46.10;25.60;;;;;;;;;;746356;188;916343;-59
2022/12/15 11:01:13;;;;;;;49.90;27.60;;;;;;;;;;744801;188;915236;-60
2022/12/15 11:03:39;;;;;;;47.80;27.07;;;;;;;;;;748521;188;919647;-59
2022/12/15 11:06:09;;;;;;;43.93;23.53;;;;;;;;;;742803;187;923982;-60
2022/12/15 11:08:35;;;;;;;40.67;25.03;;;;;;;;;;740709;188;943523;-60
2022/12/15 11:13:32;;;;;;;44.77;24.40;;;;;;;;;;725986;193;920084;-60
2022/12/15 11:15:58;;;;;;;45.37;23.83;;;;;;;;;;733068;191;919189;-59
2022/12/15 11:18:26;;;;;;;46.53;23.10;;;;;;;;;;735304;187;982159;-59
2022/12/15 11:20:53;;;;;;;48.43;24.93;;;;;;;;;;749163;187;912440;-59
2022/12/15 11:23:27;;;;;;;43.67;22.07;;;;;;;;;;736826;189;921002;-59
2022/12/15 11:25:54;;;;;;;47.00;27.77;;;;;;;;;;733968;187;918471;-59
2022/12/15 11:28:20;;;;;;;56.77;26.40;;;;;;;;;;743185;188;916904;-58
2022/12/15 11:30:46;;;;;;;47.43;26.13;;;;;;;;;;748989;185;897177;-59
2022/12/15 11:33:12;;;;;;;48.53;25.27;;;;;;;;;;742514;188;818822;-59
2022/12/15 11:35:40;;;;;;;47.83;24.80;;;;;;;;;;745780;185;923876;-60
2022/12/15 11:38:09;;;;;;;48.65;25.70;;;;;;;;;;745718;187;921008;-62
2022/12/15 11:40:38;;;;;;;50.77;26.60;;;;;;;;;;748912;185;918346;-61
2022/12/15 11:43:21;;;;;;;43.00;23.03;;;;;;;;;;732725;189;937231;-61
2022/12/15 11:45:48;;;;;;;50.33;27.13;;;;;;;;;;729790;190;919759;-62
2022/12/15 11:48:16;;;;;;;44.60;28.57;;;;;;;;;;721406;193;918580;-63
2022/12/15 11:50:40;;;;;;;49.53;26.97;;;;;;;;;;733585;190;1018667;-61
2022/12/15 11:53:08;;;;;;;54.10;26.97;;;;;;;;;;717044;192;917237;-60
2022/12/15 11:55:39;;;;;;;54.03;29.07;;;;;;;;;;733097;190;917944;-61
2022/12/15 11:58:12;;;;;;;53.50;28.00;;;;;;;;;;736673;187;919683;-63
2022/12/15 12:00:42;;;;;;;53.75;28.30;;;;;;;;;;737636;190;916918;-62
2022/12/15 12:03:22;;;;;;;53.50;30.77;;;;;;;;;;753539;186;918656;-61
2022/12/15 12:05:49;;;;;;;46.47;23.85;;;;;;;;;;751179;186;919103;-61
2022/12/15 12:08:19;;;;;;;49.77;27.13;;;;;;;;;;740436;188;919408;-62
2022/12/15 12:10:59;;;;;;;47.63;26.23;;;;;;;;;;743533;187;920981;-62
2022/12/15 12:13:41;;;;;;;50.70;28.50;;;;;;;;;;739854;187;918197;-62
2022/12/15 12:16:08;;;;;;;50.33;28.60;;;;;;;;;;745875;187;920905;-63
2022/12/15 12:18:33;;;;;;;47.50;27.03;;;;;;;;;;736382;188;917613;-62
2022/12/15 12:21:00;;;;;;;53.93;33.53;;;;;;;;;;732942;188;917588;-62
2022/12/15 12:23:38;;;;;;;61.13;33.60;;;;;;;;;;739727;188;816350;-63
2022/12/15 12:26:06;;;;;;;51.23;28.07;;;;;;;;;;733748;188;912021;-62
2022/12/15 12:28:32;;;;;;;57.63;29.87;;;;;;;;;;738726;188;918516;-66
2022/12/15 12:30:59;;;;;;;53.50;28.10;;;;;;;;;;738347;188;921348;-63
2022/12/15 12:33:27;;;;;;;48.00;28.17;;;;;;;;;;733754;191;914953;-63
2022/12/15 12:35:54;;;;;;;57.10;27.77;;;;;;;;;;719717;191;815692;-63
2022/12/15 12:38:22;;;;;;;49.17;26.43;;;;;;;;;;743899;187;918402;-64
2022/12/15 12:40:55;;;;;;;55.63;28.40;;;;;;;;;;734265;191;919638;-63
2022/12/15 12:43:20;;;;;;;53.93;26.37;;;;;;;;;;740855;188;942884;-63
2022/12/15 12:45:47;;;;;;;51.03;28.03;;;;;;;;;;739984;188;914153;-63
2022/12/15 12:48:13;;;;;;;52.70;29.67;;;;;;;;;;737029;188;915005;-63
2022/12/15 12:50:39;;;;;;;51.20;28.27;;;;;;;;;;717993;193;916409;-62
2022/12/15 12:53:05;;;;;;;52.47;26.63;;;;;;;;;;740383;188;919421;-62
2022/12/15 12:55:35;;;;;;;44.30;26.10;;;;;;;;;;748588;187;919033;-62
2022/12/15 12:58:01;;;;;;;44.73;26.73;;;;;;;;;;726832;191;919666;-61
2022/12/15 13:00:27;;;;;;;45.07;24.97;;;;;;;;;;719640;192;917827;-61
2022/12/15 13:02:55;;;;;;;51.83;29.57;;;;;;;;;;726645;193;914159;-63
2022/12/15 13:05:21;;;;;;;47.20;26.33;;;;;;;;;;738002;188;918557;-63
2022/12/15 13:08:07;;;;;;;50.53;27.03;;;;;;;;;;717312;193;920731;-62
2022/12/15 13:10:35;;;;;;;51.73;27.97;;;;;;;;;;736504;185;919133;-62
2022/12/15 13:13:05;;;;;;;53.47;27.50;;;;;;;;;;730547;189;918898;-63
2022/12/15 13:15:33;;;;;;;54.33;27.83;;;;;;;;;;747228;187;922823;-62
2022/12/15 13:18:00;;;;;;;49.10;26.40;;;;;;;;;;748462;188;923209;-63
2022/12/15 13:20:26;;;;;;;53.57;28.33;;;;;;;;;;735103;187;823661;-62
2022/12/15 13:22:53;;;;;;;52.97;26.47;;;;;;;;;;742025;188;919631;-64
2022/12/15 13:25:22;;;;;;;44.77;24.90;;;;;;;;;;743929;189;919045;-62
2022/12/15 13:27:48;;;;;;;51.03;25.90;;;;;;;;;;729158;189;919479;-63
2022/12/15 13:30:14;;;;;;;56.40;27.37;;;;;;;;;;736167;189;916384;-61
2022/12/15 13:32:41;;;;;;;53.67;27.53;;;;;;;;;;737847;189;818894;-61
2022/12/15 13:35:21;;;;;;;49.43;26.37;;;;;;;;;;744838;187;633148;-62
2022/12/15 13:37:50;;;;;;;56.40;29.17;;;;;;;;;;748292;187;614795;-61
2022/12/15 13:40:23;;;;;;;51.50;27.33;;;;;;;;;;741094;189;627242;-64
2022/12/15 13:42:57;;;;;;;44.43;25.60;;;;;;;;;;741655;187;918932;-62
2022/12/15 13:45:29;;;;;;;54.47;29.87;;;;;;;;;;747983;187;627772;-62
2022/12/15 13:47:57;;;;;;;54.00;29.58;;;;;;;;;;751320;187;619221;-63
2022/12/15 13:50:26;;;;;;;55.30;29.60;;;;;;;;;;740449;188;816977;-61
2022/12/15 13:52:53;;;;;;;56.30;30.10;;;;;;;;;;741385;187;919163;-61
2022/12/15 13:55:19;;;;;;;58.33;29.50;;;;;;;;;;736882;187;921806;-61
2022/12/15 13:57:45;;;;;;;50.10;28.33;;;;;;;;;;743796;188;921789;-61
2022/12/15 14:00:17;;;;;;;56.60;31.03;;;;;;;;;;732493;190;820840;-61
2022/12/15 14:02:38;;;;;;;56.43;30.30;;;;;;;;;;729219;189;921161;-61
2022/12/15 14:05:08;;;;;;;65.27;32.50;;;;;;;;;;724832;188;919213;-61
2022/12/15 14:07:34;;;;;;;62.30;31.70;;;;;;;;;;734537;187;814570;-60
2022/12/15 14:10:00;;;;;;;62.87;33.17;;;;;;;;;;735815;188;916572;-59
2022/12/15 14:12:26;;;;;;;51.73;28.97;;;;;;;;;;743217;188;820366;-60
2022/12/15 14:14:52;;;;;;;63.20;34.00;;;;;;;;;;744265;188;919440;-60
2022/12/15 14:17:19;;;;;;;61.83;33.27;;;;;;;;;;731566;188;937085;-59
2022/12/15 14:19:44;;;;;;;76.07;38.00;;;;;;;;;;734327;187;918920;-60
2022/12/15 14:22:15;;;;;;;69.50;35.70;;;;;;;;;;745709;187;867664;-60
2022/12/15 14:24:41;;;;;;;69.33;35.63;;;;;;;;;;743660;187;916632;-60
2022/12/15 14:27:07;;;;;;;74.93;39.23;;;;;;;;;;740845;187;844262;-60
2022/12/15 14:29:33;;;;;;;74.25;40.97;;;;;;;;;;741229;187;920293;-60
2022/12/15 14:31:59;;;;;;;83.83;44.27;;;;;;;;;;742641;190;919852;-60
2022/12/15 14:34:35;;;;;;;71.40;41.80;;;;;;;;;;734749;188;919786;-59
2022/12/15 14:37:01;;;;;;;69.70;35.53;;;;;;;;;;733971;187;817324;-60
2022/12/15 14:39:28;;;;;;;62.27;35.90;;;;;;;;;;746044;187;892144;-60
2022/12/15 14:41:54;;;;;;;68.20;38.50;;;;;;;;;;743988;188;918572;-60
2022/12/15 14:44:26;;;;;;;71.10;38.70;;;;;;;;;;735053;187;918052;-60
2022/12/15 14:46:51;;;;;;;73.43;37.80;;;;;;;;;;738555;187;918246;-59
2022/12/15 14:49:18;;;;;;;66.57;36.20;;;;;;;;;;730946;188;893272;-60
2022/12/15 14:51:44;;;;;;;73.63;35.93;;;;;;;;;;749885;187;796602;-60
2022/12/15 14:54:16;;;;;;;79.07;37.53;;;;;;;;;;734785;187;918079;-60
2022/12/15 14:56:41;;;;;;;71.73;37.27;;;;;;;;;;735347;187;913919;-59
2022/12/15 14:59:13;;;;;;;70.87;36.20;;;;;;;;;;737850;188;897368;-59
2022/12/15 15:01:39;;;;;;;77.63;38.70;;;;;;;;;;748698;185;920489;-59
2022/12/15 15:04:05;;;;;;;74.63;38.43;;;;;;;;;;737719;188;918594;-59
2022/12/15 15:06:32;;;;;;;89.80;44.63;;;;;;;;;;737599;188;938168;-59
2022/12/15 15:08:57;;;;;;;200.30;91.70;;;;;;;;;;740903;188;818539;-59
2022/12/15 15:11:28;;;;;;;70.23;37.37;;;;;;;;;;726198;191;921323;-59
2022/12/15 15:13:50;;;;;;;77.37;39.23;;;;;;;;;;726130;190;940990;-59
2022/12/15 15:16:16;;;;;;;99.22;47.65;;;;;;;;;;741539;188;922225;-61
2022/12/15 15:18:42;;;;;;;78.53;43.47;;;;;;;;;;743977;185;821506;-59
2022/12/15 15:21:08;;;;;;;89.27;44.47;;;;;;;;;;738208;188;919456;-59
2022/12/15 15:23:34;;;;;;;75.90;39.87;;;;;;;;;;742879;187;919477;-59
2022/12/15 15:26:09;;;;;;;87.57;42.70;;;;;;;;;;745055;188;1021452;-58
2022/12/15 15:28:38;;;;;;;77.07;40.70;;;;;;;;;;741229;188;912156;-59
2022/12/15 15:31:09;;;;;;;70.93;40.37;;;;;;;;;;738103;188;916030;-59
2022/12/15 15:33:35;;;;;;;73.03;36.23;;;;;;;;;;742718;186;797823;-59
2022/12/15 15:36:01;;;;;;;72.83;38.90;;;;;;;;;;732770;188;1021701;-59
2022/12/15 15:38:28;;;;;;;70.77;37.40;;;;;;;;;;736149;188;919273;-59
2022/12/15 15:40:54;;;;;;;69.30;39.13;;;;;;;;;;740180;187;922300;-60
2022/12/15 15:43:19;;;;;;;85.90;40.77;;;;;;;;;;740575;188;918497;-59
2022/12/15 15:45:45;;;;;;;68.07;37.70;;;;;;;;;;743071;187;919989;-59
2022/12/15 15:48:12;;;;;;;81.50;39.50;;;;;;;;;;730561;189;919306;-58
2022/12/15 15:50:38;;;;;;;73.17;37.00;;;;;;;;;;737819;187;921677;-60
2022/12/15 15:53:04;;;;;;;69.67;37.93;;;;;;;;;;740110;187;816392;-59
2022/12/15 15:55:30;;;;;;;83.07;41.40;;;;;;;;;;742791;188;918114;-59
2022/12/15 15:57:55;;;;;;;80.87;37.70;;;;;;;;;;742880;188;918335;-59
2022/12/15 16:00:21;;;;;;;84.77;44.10;;;;;;;;;;740713;187;865836;-58
2022/12/15 16:02:48;;;;;;;96.73;50.23;;;;;;;;;;738418;188;813735;-59
2022/12/15 16:05:14;;;;;;;79.60;44.10;;;;;;;;;;728177;191;1036106;-59
2022/12/15 16:07:40;;;;;;;97.17;48.00;;;;;;;;;;730162;190;821301;-59
2022/12/15 16:10:06;;;;;;;95.07;44.73;;;;;;;;;;747744;184;624210;-58
2022/12/15 16:12:42;;;;;;;70.93;37.67;;;;;;;;;;738873;188;831192;-60
2022/12/15 16:15:13;;;;;;;145.17;67.30;;;;;;;;;;727447;190;916014;-59
2022/12/15 16:17:39;;;;;;;118.37;58.53;;;;;;;;;;738268;187;931714;-59
2022/12/15 16:20:05;;;;;;;120.67;59.60;;;;;;;;;;744071;188;818686;-59
2022/12/15 16:22:32;;;;;;;106.50;58.03;;;;;;;;;;740884;188;848683;-59